sensor_id;sensor_type;location;lat;lon;timestamp;temperature;humidity
2012;DHT22;1009;51.436;6.972;2023-06-19T00:00:15;24.00;99.90
2012;DHT22;1009;51.436;6.972;2023-06-19T00:02:43;24.00;99.90
2012;DHT22;1009;51.436;6.972;2023-06-19T00:05:10;24.10;99.90
2012;DHT22;1009;51.436;6.972;2023-06-19T00:07:37;24.00;99.90
2012;DHT22;1009;51.436;6.972;2023-06-19T00:10:04;24.00;99.90
2012;DHT22;1009;51.436;6.972;2023-06-19T00:12:31;24.00;99.90
2012;DHT22;1009;51.436;6.972;2023-06-19T00:14:59;24.00;99.90
2012;DHT22;1009;51.436;6.972;2023-06-19T00:17:27;23.90;99.90
2012;DHT22;1009;51.436;6.972;2023-06-19T00:19:53;23.90;99.90
2012;DHT22;1009;51.436;6.972;2023-06-19T00:22:20;23.90;99.90
2012;DHT22;1009;51.436;6.972;2023-06-19T00:24:47;23.80;99.90
2012;DHT22;1009;51.436;6.972;2023-06-19T00:27:14;23.80;99.90
2012;DHT22;1009;51.436;6.972;2023-06-19T00:29:41;23.70;99.90
2012;DHT22;1009;51.436;6.972;2023-06-19T00:32:09;23.70;99.90
2012;DHT22;1009;51.436;6.972;2023-06-19T00:34:36;23.70;99.90
2012;DHT22;1009;51.436;6.972;2023-06-19T00:37:04;23.70;99.90
2012;DHT22;1009;51.436;6.972;2023-06-19T00:39:30;23.60;99.90
2012;DHT22;1009;51.436;6.972;2023-06-19T00:41:58;23.60;99.90
2012;DHT22;1009;51.436;6.972;2023-06-19T00:44:24;23.60;99.90
2012;DHT22;1009;51.436;6.972;2023-06-19T00:46:55;23.60;99.90
2012;DHT22;1009;51.436;6.972;2023-06-19T00:49:25;23.50;99.90
2012;DHT22;1009;51.436;6.972;2023-06-19T00:51:52;23.50;99.90
2012;DHT22;1009;51.436;6.972;2023-06-19T00:54:19;23.50;99.90
2012;DHT22;1009;51.436;6.972;2023-06-19T00:56:46;23.50;99.90
2012;DHT22;1009;51.436;6.972;2023-06-19T00:59:16;23.50;99.90
2012;DHT22;1009;51.436;6.972;2023-06-19T01:01:43;23.50;99.90
2012;DHT22;1009;51.436;6.972;2023-06-19T01:04:10;23.50;99.90
2012;DHT22;1009;51.436;6.972;2023-06-19T01:06:42;23.40;99.90
2012;DHT22;1009;51.436;6.972;2023-06-19T01:09:13;23.40;99.90
2012;DHT22;1009;51.436;6.972;2023-06-19T01:11:44;23.40;99.90
2012;DHT22;1009;51.436;6.972;2023-06-19T01:14:15;23.30;99.90
2012;DHT22;1009;51.436;6.972;2023-06-19T01:16:43;23.40;99.90
2012;DHT22;1009;51.436;6.972;2023-06-19T01:19:15;23.40;99.90
2012;DHT22;1009;51.436;6.972;2023-06-19T01:21:43;23.40;99.90
2012;DHT22;1009;51.436;6.972;2023-06-19T01:24:12;23.30;99.90
2012;DHT22;1009;51.436;6.972;2023-06-19T01:26:39;23.30;99.90
2012;DHT22;1009;51.436;6.972;2023-06-19T01:29:06;23.40;99.90
2012;DHT22;1009;51.436;6.972;2023-06-19T01:31:35;23.40;99.90
2012;DHT22;1009;51.436;6.972;2023-06-19T01:34:06;23.30;99.90
2012;DHT22;1009;51.436;6.972;2023-06-19T01:36:33;23.40;99.90
2012;DHT22;1009;51.436;6.972;2023-06-19T01:39:01;23.30;99.90
2012;DHT22;1009;51.436;6.972;2023-06-19T01:41:32;23.30;99.90
2012;DHT22;1009;51.436;6.972;2023-06-19T01:43:59;23.20;99.90
2012;DHT22;1009;51.436;6.972;2023-06-19T01:46:26;23.20;99.90
2012;DHT22;1009;51.436;6.972;2023-06-19T01:48:53;23.20;99.90
2012;DHT22;1009;51.436;6.972;2023-06-19T01:51:20;23.10;99.90
2012;DHT22;1009;51.436;6.972;2023-06-19T01:53:47;23.10;99.90
2012;DHT22;1009;51.436;6.972;2023-06-19T01:56:14;23.10;99.90
2012;DHT22;1009;51.436;6.972;2023-06-19T01:58:42;23.00;99.90
2012;DHT22;1009;51.436;6.972;2023-06-19T02:01:08;23.00;99.90
2012;DHT22;1009;51.436;6.972;2023-06-19T02:03:35;23.00;99.90
2012;DHT22;1009;51.436;6.972;2023-06-19T02:06:02;23.00;99.90
2012;DHT22;1009;51.436;6.972;2023-06-19T02:08:29;23.00;99.90
2012;DHT22;1009;51.436;6.972;2023-06-19T02:10:55;22.90;99.90
2012;DHT22;1009;51.436;6.972;2023-06-19T02:13:22;22.90;99.90
2012;DHT22;1009;51.436;6.972;2023-06-19T02:15:50;22.90;99.90
2012;DHT22;1009;51.436;6.972;2023-06-19T02:18:17;22.80;99.90
2012;DHT22;1009;51.436;6.972;2023-06-19T02:20:44;22.70;99.90
2012;DHT22;1009;51.436;6.972;2023-06-19T02:23:11;22.70;99.90
2012;DHT22;1009;51.436;6.972;2023-06-19T02:25:37;22.60;99.90
2012;DHT22;1009;51.436;6.972;2023-06-19T02:28:04;22.60;99.90
2012;DHT22;1009;51.436;6.972;2023-06-19T02:30:31;22.50;99.90
2012;DHT22;1009;51.436;6.972;2023-06-19T02:32:59;22.50;99.90
2012;DHT22;1009;51.436;6.972;2023-06-19T02:35:26;22.50;99.90
2012;DHT22;1009;51.436;6.972;2023-06-19T02:37:52;22.50;99.90
2012;DHT22;1009;51.436;6.972;2023-06-19T02:40:19;22.50;99.90
2012;DHT22;1009;51.436;6.972;2023-06-19T02:42:46;22.50;99.90
2012;DHT22;1009;51.436;6.972;2023-06-19T02:45:13;22.50;99.90
2012;DHT22;1009;51.436;6.972;2023-06-19T02:47:39;22.60;99.90
2012;DHT22;1009;51.436;6.972;2023-06-19T02:50:08;22.60;99.90
2012;DHT22;1009;51.436;6.972;2023-06-19T02:52:35;22.50;99.90
2012;DHT22;1009;51.436;6.972;2023-06-19T02:55:01;22.50;99.90
2012;DHT22;1009;51.436;6.972;2023-06-19T02:57:28;22.50;99.90
2012;DHT22;1009;51.436;6.972;2023-06-19T02:59:55;22.50;99.90
2012;DHT22;1009;51.436;6.972;2023-06-19T03:02:22;22.60;99.90
2012;DHT22;1009;51.436;6.972;2023-06-19T03:04:48;22.50;99.90
2012;DHT22;1009;51.436;6.972;2023-06-19T03:07:17;22.50;99.90
2012;DHT22;1009;51.436;6.972;2023-06-19T03:09:43;22.50;99.90
2012;DHT22;1009;51.436;6.972;2023-06-19T03:12:10;22.40;99.90
2012;DHT22;1009;51.436;6.972;2023-06-19T03:14:37;22.50;99.90
2012;DHT22;1009;51.436;6.972;2023-06-19T03:17:05;22.40;99.90
2012;DHT22;1009;51.436;6.972;2023-06-19T03:19:32;22.30;99.90
2012;DHT22;1009;51.436;6.972;2023-06-19T03:21:59;22.30;99.90
2012;DHT22;1009;51.436;6.972;2023-06-19T03:24:27;22.30;99.90
2012;DHT22;1009;51.436;6.972;2023-06-19T03:26:54;22.20;99.90
2012;DHT22;1009;51.436;6.972;2023-06-19T03:29:21;22.10;99.90
2012;DHT22;1009;51.436;6.972;2023-06-19T03:31:47;22.10;99.90
2012;DHT22;1009;51.436;6.972;2023-06-19T03:34:14;22.10;99.90
2012;DHT22;1009;51.436;6.972;2023-06-19T03:36:41;22.20;99.90
2012;DHT22;1009;51.436;6.972;2023-06-19T03:39:07;22.10;99.90
2012;DHT22;1009;51.436;6.972;2023-06-19T03:41:35;22.10;99.90
2012;DHT22;1009;51.436;6.972;2023-06-19T03:44:02;22.00;99.90
2012;DHT22;1009;51.436;6.972;2023-06-19T03:46:29;21.90;99.90
2012;DHT22;1009;51.436;6.972;2023-06-19T03:48:56;21.90;99.90
2012;DHT22;1009;51.436;6.972;2023-06-19T03:51:22;21.80;99.90
2012;DHT22;1009;51.436;6.972;2023-06-19T03:53:49;21.80;99.90
2012;DHT22;1009;51.436;6.972;2023-06-19T03:56:16;21.70;99.90
2012;DHT22;1009;51.436;6.972;2023-06-19T03:58:44;21.80;99.90
2012;DHT22;1009;51.436;6.972;2023-06-19T04:01:11;21.80;99.90
2012;DHT22;1009;51.436;6.972;2023-06-19T04:03:37;21.60;99.90
2012;DHT22;1009;51.436;6.972;2023-06-19T04:06:04;21.60;99.90
2012;DHT22;1009;51.436;6.972;2023-06-19T04:08:31;21.60;99.90
2012;DHT22;1009;51.436;6.972;2023-06-19T04:10:57;21.50;99.90
2012;DHT22;1009;51.436;6.972;2023-06-19T04:13:24;21.50;99.90
2012;DHT22;1009;51.436;6.972;2023-06-19T04:15:52;21.50;99.90
2012;DHT22;1009;51.436;6.972;2023-06-19T04:18:19;21.40;99.90
2012;DHT22;1009;51.436;6.972;2023-06-19T04:20:46;21.40;99.90
2012;DHT22;1009;51.436;6.972;2023-06-19T04:23:13;21.40;99.90
2012;DHT22;1009;51.436;6.972;2023-06-19T04:25:39;21.40;99.90
2012;DHT22;1009;51.436;6.972;2023-06-19T04:28:06;21.30;99.90
2012;DHT22;1009;51.436;6.972;2023-06-19T04:30:33;21.40;99.90
2012;DHT22;1009;51.436;6.972;2023-06-19T04:33:01;21.30;99.90
2012;DHT22;1009;51.436;6.972;2023-06-19T04:35:27;21.20;99.90
2012;DHT22;1009;51.436;6.972;2023-06-19T04:37:54;21.20;99.90
2012;DHT22;1009;51.436;6.972;2023-06-19T04:40:21;21.20;99.90
2012;DHT22;1009;51.436;6.972;2023-06-19T04:42:47;21.10;99.90
2012;DHT22;1009;51.436;6.972;2023-06-19T04:45:14;21.10;99.90
2012;DHT22;1009;51.436;6.972;2023-06-19T04:47:41;21.10;99.90
2012;DHT22;1009;51.436;6.972;2023-06-19T04:50:11;21.10;99.90
2012;DHT22;1009;51.436;6.972;2023-06-19T04:52:38;21.10;99.90
2012;DHT22;1009;51.436;6.972;2023-06-19T04:55:05;21.10;99.90
2012;DHT22;1009;51.436;6.972;2023-06-19T04:57:34;21.10;99.90
2012;DHT22;1009;51.436;6.972;2023-06-19T05:00:02;21.00;99.90
2012;DHT22;1009;51.436;6.972;2023-06-19T05:02:30;21.10;99.90
2012;DHT22;1009;51.436;6.972;2023-06-19T05:04:57;21.10;99.90
2012;DHT22;1009;51.436;6.972;2023-06-19T05:07:29;21.00;99.90
2012;DHT22;1009;51.436;6.972;2023-06-19T05:09:56;21.00;99.90
2012;DHT22;1009;51.436;6.972;2023-06-19T05:12:22;21.00;99.90
2012;DHT22;1009;51.436;6.972;2023-06-19T05:14:49;21.00;99.90
2012;DHT22;1009;51.436;6.972;2023-06-19T05:17:16;21.00;99.90
2012;DHT22;1009;51.436;6.972;2023-06-19T05:19:43;20.90;99.90
2012;DHT22;1009;51.436;6.972;2023-06-19T05:22:09;20.90;99.90
2012;DHT22;1009;51.436;6.972;2023-06-19T05:24:37;20.90;99.90
2012;DHT22;1009;51.436;6.972;2023-06-19T05:27:05;20.90;99.90
2012;DHT22;1009;51.436;6.972;2023-06-19T05:29:31;21.10;99.90
2012;DHT22;1009;51.436;6.972;2023-06-19T05:31:58;21.20;99.90
2012;DHT22;1009;51.436;6.972;2023-06-19T05:34:25;21.20;99.90
2012;DHT22;1009;51.436;6.972;2023-06-19T05:36:52;21.10;99.90
2012;DHT22;1009;51.436;6.972;2023-06-19T05:39:19;21.20;99.90
2012;DHT22;1009;51.436;6.972;2023-06-19T05:41:47;21.20;99.90
2012;DHT22;1009;51.436;6.972;2023-06-19T05:44:13;21.30;99.90
2012;DHT22;1009;51.436;6.972;2023-06-19T05:46:42;21.30;99.90
2012;DHT22;1009;51.436;6.972;2023-06-19T05:49:08;21.20;99.90
2012;DHT22;1009;51.436;6.972;2023-06-19T05:51:35;21.20;99.90
2012;DHT22;1009;51.436;6.972;2023-06-19T05:54:02;21.10;99.90
2012;DHT22;1009;51.436;6.972;2023-06-19T05:56:29;21.20;99.90
2012;DHT22;1009;51.436;6.972;2023-06-19T05:58:57;21.30;99.90
2012;DHT22;1009;51.436;6.972;2023-06-19T06:01:25;21.30;99.90
2012;DHT22;1009;51.436;6.972;2023-06-19T06:03:53;21.30;99.90
2012;DHT22;1009;51.436;6.972;2023-06-19T06:06:20;21.20;99.90
2012;DHT22;1009;51.436;6.972;2023-06-19T06:08:47;21.30;99.90
2012;DHT22;1009;51.436;6.972;2023-06-19T06:11:14;21.40;99.90
2012;DHT22;1009;51.436;6.972;2023-06-19T06:13:40;21.30;99.90
2012;DHT22;1009;51.436;6.972;2023-06-19T06:16:08;21.40;99.90
2012;DHT22;1009;51.436;6.972;2023-06-19T06:18:35;21.40;99.90
2012;DHT22;1009;51.436;6.972;2023-06-19T06:21:02;21.30;99.90
2012;DHT22;1009;51.436;6.972;2023-06-19T06:23:30;21.40;99.90
2012;DHT22;1009;51.436;6.972;2023-06-19T06:25:57;21.50;99.90
2012;DHT22;1009;51.436;6.972;2023-06-19T06:28:27;21.50;99.90
2012;DHT22;1009;51.436;6.972;2023-06-19T06:30:54;21.50;99.90
2012;DHT22;1009;51.436;6.972;2023-06-19T06:33:23;21.60;99.90
2012;DHT22;1009;51.436;6.972;2023-06-19T06:35:49;21.50;99.90
2012;DHT22;1009;51.436;6.972;2023-06-19T06:38:16;21.40;99.90
2012;DHT22;1009;51.436;6.972;2023-06-19T06:40:43;21.40;99.90
2012;DHT22;1009;51.436;6.972;2023-06-19T06:43:10;21.40;99.90
2012;DHT22;1009;51.436;6.972;2023-06-19T06:45:37;21.40;99.90
2012;DHT22;1009;51.436;6.972;2023-06-19T06:48:04;21.30;99.90
2012;DHT22;1009;51.436;6.972;2023-06-19T06:50:33;21.30;99.90
2012;DHT22;1009;51.436;6.972;2023-06-19T06:53:01;21.40;99.90
2012;DHT22;1009;51.436;6.972;2023-06-19T06:55:28;21.40;99.90
2012;DHT22;1009;51.436;6.972;2023-06-19T06:57:55;21.40;99.90
2012;DHT22;1009;51.436;6.972;2023-06-19T07:00:22;21.50;99.90
2012;DHT22;1009;51.436;6.972;2023-06-19T07:02:48;21.50;99.90
2012;DHT22;1009;51.436;6.972;2023-06-19T07:05:17;21.60;99.90
2012;DHT22;1009;51.436;6.972;2023-06-19T07:07:45;21.60;99.90
2012;DHT22;1009;51.436;6.972;2023-06-19T07:10:11;21.60;99.90
2012;DHT22;1009;51.436;6.972;2023-06-19T07:12:46;21.50;99.90
2012;DHT22;1009;51.436;6.972;2023-06-19T07:15:13;21.40;99.90
2012;DHT22;1009;51.436;6.972;2023-06-19T07:17:39;21.30;99.90
2012;DHT22;1009;51.436;6.972;2023-06-19T07:20:07;21.30;99.90
2012;DHT22;1009;51.436;6.972;2023-06-19T07:22:34;21.20;99.90
2012;DHT22;1009;51.436;6.972;2023-06-19T07:25:03;21.30;99.90
2012;DHT22;1009;51.436;6.972;2023-06-19T07:27:33;21.30;99.90
2012;DHT22;1009;51.436;6.972;2023-06-19T07:30:00;21.30;99.90
2012;DHT22;1009;51.436;6.972;2023-06-19T07:32:27;21.00;99.90
2012;DHT22;1009;51.436;6.972;2023-06-19T07:34:54;20.80;99.90
2012;DHT22;1009;51.436;6.972;2023-06-19T07:37:21;20.90;99.90
2012;DHT22;1009;51.436;6.972;2023-06-19T07:39:49;20.80;99.90
2012;DHT22;1009;51.436;6.972;2023-06-19T07:42:18;20.90;99.90
2012;DHT22;1009;51.436;6.972;2023-06-19T07:44:45;20.80;99.90
2012;DHT22;1009;51.436;6.972;2023-06-19T07:47:12;20.80;99.90
2012;DHT22;1009;51.436;6.972;2023-06-19T07:49:39;20.80;99.90
2012;DHT22;1009;51.436;6.972;2023-06-19T07:52:07;20.90;99.90
2012;DHT22;1009;51.436;6.972;2023-06-19T07:54:35;20.90;99.90
2012;DHT22;1009;51.436;6.972;2023-06-19T07:57:03;21.00;99.90
2012;DHT22;1009;51.436;6.972;2023-06-19T07:59:31;21.00;99.90
2012;DHT22;1009;51.436;6.972;2023-06-19T08:01:57;21.10;99.90
2012;DHT22;1009;51.436;6.972;2023-06-19T08:04:24;21.20;99.90
2012;DHT22;1009;51.436;6.972;2023-06-19T08:06:51;21.30;99.90
2012;DHT22;1009;51.436;6.972;2023-06-19T08:09:18;21.30;99.90
2012;DHT22;1009;51.436;6.972;2023-06-19T08:11:44;21.30;99.90
2012;DHT22;1009;51.436;6.972;2023-06-19T08:14:11;21.40;99.90
2012;DHT22;1009;51.436;6.972;2023-06-19T08:16:39;21.30;99.90
2012;DHT22;1009;51.436;6.972;2023-06-19T08:19:06;21.30;99.90
2012;DHT22;1009;51.436;6.972;2023-06-19T08:21:32;21.20;99.90
2012;DHT22;1009;51.436;6.972;2023-06-19T08:23:59;21.00;99.90
2012;DHT22;1009;51.436;6.972;2023-06-19T08:26:26;21.00;99.90
2012;DHT22;1009;51.436;6.972;2023-06-19T08:28:52;21.10;99.90
2012;DHT22;1009;51.436;6.972;2023-06-19T08:31:19;21.30;99.90
2012;DHT22;1009;51.436;6.972;2023-06-19T08:33:48;21.70;99.90
2012;DHT22;1009;51.436;6.972;2023-06-19T08:36:15;22.10;99.90
2012;DHT22;1009;51.436;6.972;2023-06-19T08:38:41;22.30;99.90
2012;DHT22;1009;51.436;6.972;2023-06-19T08:41:08;22.40;99.90
2012;DHT22;1009;51.436;6.972;2023-06-19T08:43:35;22.50;99.90
2012;DHT22;1009;51.436;6.972;2023-06-19T08:46:09;22.70;99.90
2012;DHT22;1009;51.436;6.972;2023-06-19T08:48:36;22.80;99.90
2012;DHT22;1009;51.436;6.972;2023-06-19T08:51:05;23.00;99.90
2012;DHT22;1009;51.436;6.972;2023-06-19T08:53:33;23.20;99.90
2012;DHT22;1009;51.436;6.972;2023-06-19T08:56:01;23.50;99.90
2012;DHT22;1009;51.436;6.972;2023-06-19T08:58:28;23.60;99.90
2012;DHT22;1009;51.436;6.972;2023-06-19T09:00:57;23.70;99.90
2012;DHT22;1009;51.436;6.972;2023-06-19T09:03:24;23.60;99.90
2012;DHT22;1009;51.436;6.972;2023-06-19T09:05:51;23.40;99.90
2012;DHT22;1009;51.436;6.972;2023-06-19T09:08:19;23.40;99.90
2012;DHT22;1009;51.436;6.972;2023-06-19T09:10:57;23.30;99.90
2012;DHT22;1009;51.436;6.972;2023-06-19T09:13:24;23.20;99.90
2012;DHT22;1009;51.436;6.972;2023-06-19T09:15:58;23.20;99.90
2012;DHT22;1009;51.436;6.972;2023-06-19T09:18:25;23.30;99.90
2012;DHT22;1009;51.436;6.972;2023-06-19T09:20:53;23.40;99.90
2012;DHT22;1009;51.436;6.972;2023-06-19T09:23:21;23.40;99.90
2012;DHT22;1009;51.436;6.972;2023-06-19T09:25:49;23.60;99.90
2012;DHT22;1009;51.436;6.972;2023-06-19T09:28:20;23.80;99.90
2012;DHT22;1009;51.436;6.972;2023-06-19T09:30:54;23.90;99.90
2012;DHT22;1009;51.436;6.972;2023-06-19T09:33:22;24.10;99.90
2012;DHT22;1009;51.436;6.972;2023-06-19T09:35:49;24.30;99.90
2012;DHT22;1009;51.436;6.972;2023-06-19T09:38:17;24.20;99.90
2012;DHT22;1009;51.436;6.972;2023-06-19T09:40:46;23.90;99.90
2012;DHT22;1009;51.436;6.972;2023-06-19T09:43:17;23.70;99.90
2012;DHT22;1009;51.436;6.972;2023-06-19T09:45:48;23.70;99.90
2012;DHT22;1009;51.436;6.972;2023-06-19T09:48:18;24.10;99.90
2012;DHT22;1009;51.436;6.972;2023-06-19T09:50:48;24.60;99.90
2012;DHT22;1009;51.436;6.972;2023-06-19T09:53:18;25.00;99.90
2012;DHT22;1009;51.436;6.972;2023-06-19T09:55:47;25.30;99.90
2012;DHT22;1009;51.436;6.972;2023-06-19T09:58:15;25.00;99.90
2012;DHT22;1009;51.436;6.972;2023-06-19T10:00:43;24.50;99.90
2012;DHT22;1009;51.436;6.972;2023-06-19T10:03:12;24.60;99.90
2012;DHT22;1009;51.436;6.972;2023-06-19T10:05:39;24.80;99.90
2012;DHT22;1009;51.436;6.972;2023-06-19T10:08:06;25.20;99.90
2012;DHT22;1009;51.436;6.972;2023-06-19T10:10:34;25.60;99.90
2012;DHT22;1009;51.436;6.972;2023-06-19T10:13:13;25.90;99.90
2012;DHT22;1009;51.436;6.972;2023-06-19T10:15:41;26.10;99.90
2012;DHT22;1009;51.436;6.972;2023-06-19T10:18:13;26.20;99.90
2012;DHT22;1009;51.436;6.972;2023-06-19T10:20:41;26.40;99.90
2012;DHT22;1009;51.436;6.972;2023-06-19T10:23:11;26.30;99.90
2012;DHT22;1009;51.436;6.972;2023-06-19T10:25:39;26.10;99.90
2012;DHT22;1009;51.436;6.972;2023-06-19T10:28:17;26.40;99.90
2012;DHT22;1009;51.436;6.972;2023-06-19T10:30:44;26.70;99.90
2012;DHT22;1009;51.436;6.972;2023-06-19T10:33:11;26.90;99.90
2012;DHT22;1009;51.436;6.972;2023-06-19T10:35:39;27.10;99.90
2012;DHT22;1009;51.436;6.972;2023-06-19T10:38:06;27.10;99.90
2012;DHT22;1009;51.436;6.972;2023-06-19T10:40:35;26.80;99.90
2012;DHT22;1009;51.436;6.972;2023-06-19T10:43:03;26.60;99.90
2012;DHT22;1009;51.436;6.972;2023-06-19T10:45:32;26.90;99.90
2012;DHT22;1009;51.436;6.972;2023-06-19T10:48:01;27.00;99.90
2012;DHT22;1009;51.436;6.972;2023-06-19T10:50:29;27.00;99.90
2012;DHT22;1009;51.436;6.972;2023-06-19T10:52:56;27.20;99.90
2012;DHT22;1009;51.436;6.972;2023-06-19T10:55:22;27.20;99.90
2012;DHT22;1009;51.436;6.972;2023-06-19T10:57:50;26.90;99.90
2012;DHT22;1009;51.436;6.972;2023-06-19T11:00:27;26.70;99.90
2012;DHT22;1009;51.436;6.972;2023-06-19T11:02:55;27.10;99.90
2012;DHT22;1009;51.436;6.972;2023-06-19T11:05:22;27.40;99.90
2012;DHT22;1009;51.436;6.972;2023-06-19T11:07:54;27.40;99.90
2012;DHT22;1009;51.436;6.972;2023-06-19T11:10:22;27.30;99.90
2012;DHT22;1009;51.436;6.972;2023-06-19T11:12:50;27.40;99.90
2012;DHT22;1009;51.436;6.972;2023-06-19T11:15:16;27.20;99.90
2012;DHT22;1009;51.436;6.972;2023-06-19T11:17:43;27.10;99.90
2012;DHT22;1009;51.436;6.972;2023-06-19T11:20:12;26.90;99.90
2012;DHT22;1009;51.436;6.972;2023-06-19T11:22:41;26.80;99.90
2012;DHT22;1009;51.436;6.972;2023-06-19T11:25:09;26.90;99.90
2012;DHT22;1009;51.436;6.972;2023-06-19T11:27:38;27.10;99.90
2012;DHT22;1009;51.436;6.972;2023-06-19T11:30:06;27.40;99.90
2012;DHT22;1009;51.436;6.972;2023-06-19T11:32:34;27.60;99.90
2012;DHT22;1009;51.436;6.972;2023-06-19T11:35:07;27.60;99.90
2012;DHT22;1009;51.436;6.972;2023-06-19T11:37:36;27.90;99.90
2012;DHT22;1009;51.436;6.972;2023-06-19T11:40:03;28.00;99.90
2012;DHT22;1009;51.436;6.972;2023-06-19T11:42:47;27.90;99.90
2012;DHT22;1009;51.436;6.972;2023-06-19T11:45:14;27.90;99.90
2012;DHT22;1009;51.436;6.972;2023-06-19T11:47:43;27.90;99.90
2012;DHT22;1009;51.436;6.972;2023-06-19T11:50:11;27.70;99.90
2012;DHT22;1009;51.436;6.972;2023-06-19T11:52:39;27.90;99.90
2012;DHT22;1009;51.436;6.972;2023-06-19T11:55:07;28.20;99.90
2012;DHT22;1009;51.436;6.972;2023-06-19T11:57:34;28.40;99.90
2012;DHT22;1009;51.436;6.972;2023-06-19T12:00:00;28.40;99.90
2012;DHT22;1009;51.436;6.972;2023-06-19T12:02:32;28.70;99.90
2012;DHT22;1009;51.436;6.972;2023-06-19T12:04:59;28.90;99.90
2012;DHT22;1009;51.436;6.972;2023-06-19T12:07:26;29.20;99.90
2012;DHT22;1009;51.436;6.972;2023-06-19T12:09:54;29.30;99.60
2012;DHT22;1009;51.436;6.972;2023-06-19T12:12:20;29.30;98.90
2012;DHT22;1009;51.436;6.972;2023-06-19T12:14:47;29.50;97.50
2012;DHT22;1009;51.436;6.972;2023-06-19T12:17:14;29.40;96.30
2012;DHT22;1009;51.436;6.972;2023-06-19T12:19:40;29.50;94.00
2012;DHT22;1009;51.436;6.972;2023-06-19T12:22:07;29.60;94.50
2012;DHT22;1009;51.436;6.972;2023-06-19T12:24:34;29.40;95.40
2012;DHT22;1009;51.436;6.972;2023-06-19T12:27:02;29.30;95.10
2012;DHT22;1009;51.436;6.972;2023-06-19T12:29:29;28.90;93.80
2012;DHT22;1009;51.436;6.972;2023-06-19T12:31:59;28.90;96.80
2012;DHT22;1009;51.436;6.972;2023-06-19T12:34:27;29.10;97.80
2012;DHT22;1009;51.436;6.972;2023-06-19T12:36:54;29.10;97.50
2012;DHT22;1009;51.436;6.972;2023-06-19T12:39:22;29.20;95.60
2012;DHT22;1009;51.436;6.972;2023-06-19T12:41:50;29.20;95.70
2012;DHT22;1009;51.436;6.972;2023-06-19T12:44:18;29.10;95.80
2012;DHT22;1009;51.436;6.972;2023-06-19T12:46:45;29.10;97.00
2012;DHT22;1009;51.436;6.972;2023-06-19T12:49:11;28.80;97.30
2012;DHT22;1009;51.436;6.972;2023-06-19T12:51:38;28.50;94.00
2012;DHT22;1009;51.436;6.972;2023-06-19T12:54:05;28.20;95.40
2012;DHT22;1009;51.436;6.972;2023-06-19T12:56:32;27.90;93.70
2012;DHT22;1009;51.436;6.972;2023-06-19T12:58:58;27.80;94.20
2012;DHT22;1009;51.436;6.972;2023-06-19T13:01:26;27.70;95.60
2012;DHT22;1009;51.436;6.972;2023-06-19T13:03:53;27.80;96.30
2012;DHT22;1009;51.436;6.972;2023-06-19T13:06:20;28.00;97.80
2012;DHT22;1009;51.436;6.972;2023-06-19T13:08:46;28.10;96.80
2012;DHT22;1009;51.436;6.972;2023-06-19T13:11:13;28.20;99.50
2012;DHT22;1009;51.436;6.972;2023-06-19T13:13:40;28.40;99.90
2012;DHT22;1009;51.436;6.972;2023-06-19T13:16:07;28.70;97.50
2012;DHT22;1009;51.436;6.972;2023-06-19T13:18:36;29.10;95.20
2012;DHT22;1009;51.436;6.972;2023-06-19T13:21:02;29.40;95.60
2012;DHT22;1009;51.436;6.972;2023-06-19T13:23:29;29.50;94.40
2012;DHT22;1009;51.436;6.972;2023-06-19T13:25:57;29.40;94.10
2012;DHT22;1009;51.436;6.972;2023-06-19T13:28:24;29.20;91.30
2012;DHT22;1009;51.436;6.972;2023-06-19T13:30:50;29.30;91.20
2012;DHT22;1009;51.436;6.972;2023-06-19T13:33:17;29.30;87.70
2012;DHT22;1009;51.436;6.972;2023-06-19T13:35:45;29.60;88.00
2012;DHT22;1009;51.436;6.972;2023-06-19T13:38:12;29.90;89.80
2012;DHT22;1009;51.436;6.972;2023-06-19T13:40:39;30.00;87.80
2012;DHT22;1009;51.436;6.972;2023-06-19T13:43:06;29.80;84.70
2012;DHT22;1009;51.436;6.972;2023-06-19T13:45:32;30.20;88.00
2012;DHT22;1009;51.436;6.972;2023-06-19T13:48:00;30.40;84.90
2012;DHT22;1009;51.436;6.972;2023-06-19T13:50:27;30.20;88.00
2012;DHT22;1009;51.436;6.972;2023-06-19T13:52:55;30.00;78.80
2012;DHT22;1009;51.436;6.972;2023-06-19T13:55:21;29.90;83.30
2012;DHT22;1009;51.436;6.972;2023-06-19T13:57:48;29.80;81.70
2012;DHT22;1009;51.436;6.972;2023-06-19T14:00:16;29.50;79.00
2012;DHT22;1009;51.436;6.972;2023-06-19T14:02:43;29.50;80.70
2012;DHT22;1009;51.436;6.972;2023-06-19T14:05:11;29.50;81.40
2012;DHT22;1009;51.436;6.972;2023-06-19T14:07:40;29.40;80.30
2012;DHT22;1009;51.436;6.972;2023-06-19T14:10:09;29.70;85.80
2012;DHT22;1009;51.436;6.972;2023-06-19T14:12:36;29.80;84.60
2012;DHT22;1009;51.436;6.972;2023-06-19T14:15:05;29.70;84.90
2012;DHT22;1009;51.436;6.972;2023-06-19T14:17:32;29.60;83.00
2012;DHT22;1009;51.436;6.972;2023-06-19T14:20:02;29.40;83.90
2012;DHT22;1009;51.436;6.972;2023-06-19T14:22:30;29.40;81.60
2012;DHT22;1009;51.436;6.972;2023-06-19T14:24:56;29.60;82.10
2012;DHT22;1009;51.436;6.972;2023-06-19T14:27:26;29.90;79.20
2012;DHT22;1009;51.436;6.972;2023-06-19T14:29:53;29.90;74.00
2012;DHT22;1009;51.436;6.972;2023-06-19T14:32:21;29.60;78.00
2012;DHT22;1009;51.436;6.972;2023-06-19T14:34:47;29.60;82.20
2012;DHT22;1009;51.436;6.972;2023-06-19T14:37:14;29.80;76.70
2012;DHT22;1009;51.436;6.972;2023-06-19T14:39:42;29.70;75.10
2012;DHT22;1009;51.436;6.972;2023-06-19T14:42:09;29.80;75.20
2012;DHT22;1009;51.436;6.972;2023-06-19T14:44:37;29.80;73.90
2012;DHT22;1009;51.436;6.972;2023-06-19T14:47:05;29.70;74.40
2012;DHT22;1009;51.436;6.972;2023-06-19T14:49:32;29.60;75.70
2012;DHT22;1009;51.436;6.972;2023-06-19T14:51:58;29.60;76.40
2012;DHT22;1009;51.436;6.972;2023-06-19T14:54:25;29.60;80.40
2012;DHT22;1009;51.436;6.972;2023-06-19T14:56:52;29.70;73.70
2012;DHT22;1009;51.436;6.972;2023-06-19T14:59:19;29.70;75.20
2012;DHT22;1009;51.436;6.972;2023-06-19T15:01:47;29.40;73.50
2012;DHT22;1009;51.436;6.972;2023-06-19T15:04:14;29.60;73.40
2012;DHT22;1009;51.436;6.972;2023-06-19T15:06:40;29.60;76.20
2012;DHT22;1009;51.436;6.972;2023-06-19T15:09:07;29.70;76.50
2012;DHT22;1009;51.436;6.972;2023-06-19T15:11:34;29.50;75.10
2012;DHT22;1009;51.436;6.972;2023-06-19T15:14:01;29.40;76.50
2012;DHT22;1009;51.436;6.972;2023-06-19T15:16:27;29.40;75.00
2012;DHT22;1009;51.436;6.972;2023-06-19T15:18:55;29.50;76.70
2012;DHT22;1009;51.436;6.972;2023-06-19T15:21:22;29.50;74.00
2012;DHT22;1009;51.436;6.972;2023-06-19T15:23:52;29.30;72.70
2012;DHT22;1009;51.436;6.972;2023-06-19T15:26:19;29.40;76.20
2012;DHT22;1009;51.436;6.972;2023-06-19T15:28:46;29.40;77.00
2012;DHT22;1009;51.436;6.972;2023-06-19T15:31:12;29.40;78.30
2012;DHT22;1009;51.436;6.972;2023-06-19T15:33:41;29.30;78.00
2012;DHT22;1009;51.436;6.972;2023-06-19T15:36:09;29.20;76.20
2012;DHT22;1009;51.436;6.972;2023-06-19T15:38:35;29.00;77.40
2012;DHT22;1009;51.436;6.972;2023-06-19T15:41:03;29.00;74.10
2012;DHT22;1009;51.436;6.972;2023-06-19T15:43:29;29.10;76.50
2012;DHT22;1009;51.436;6.972;2023-06-19T15:45:56;29.00;72.90
2012;DHT22;1009;51.436;6.972;2023-06-19T15:48:23;28.80;71.60
2012;DHT22;1009;51.436;6.972;2023-06-19T15:50:50;28.80;73.30
2012;DHT22;1009;51.436;6.972;2023-06-19T15:53:18;28.60;76.60
2012;DHT22;1009;51.436;6.972;2023-06-19T15:55:45;28.50;78.50
2012;DHT22;1009;51.436;6.972;2023-06-19T15:58:12;28.50;78.70
2012;DHT22;1009;51.436;6.972;2023-06-19T16:00:39;28.50;74.40
2012;DHT22;1009;51.436;6.972;2023-06-19T16:03:06;28.50;72.40